Time;durP1;ratioP1;P1;durP2;ratioP2;P2;SDS_P1;SDS_P2;PMS_P1;PMS_P2;Temp;Humidity;BMP_temperature;BMP_pressure;BME280_temperature;BME280_humidity;BME280_pressure;Samples;Min_cycle;Max_cycle;Signal;HPM_P1;HPM_P2
2022/03/23 00:00:40;;;;;;;35.72;17.70;;;9.80;55.00;;;;;;9181317;19;20101;-64
2022/03/23 00:03:46;;;;;;;45.65;17.50;;;9.80;55.10;;;;;;9183764;19;20023;-66
2022/03/23 00:06:52;;;;;;;34.05;17.13;;;9.70;55.00;;;;;;9183794;19;20023;-65
2022/03/23 00:09:58;;;;;;;56.78;18.73;;;9.70;55.20;;;;;;9182452;19;20015;-66
2022/03/23 00:13:03;;;;;;;40.05;18.05;;;9.60;55.20;;;;;;9183064;19;20018;-65
2022/03/23 00:16:11;;;;;;;45.72;17.98;;;9.60;55.20;;;;;;9181922;19;20029;-66
2022/03/23 00:19:17;;;;;;;40.15;17.52;;;9.50;55.30;;;;;;9185132;19;20014;-66
2022/03/23 00:22:27;;;;;;;35.97;18.08;;;9.50;55.30;;;;;;9184366;19;20015;-64
2022/03/23 00:25:32;;;;;;;49.20;17.92;;;9.40;55.40;;;;;;9185046;19;20463;-65
2022/03/23 00:28:37;;;;;;;39.55;17.55;;;9.40;55.40;;;;;;9184453;19;20544;-65
2022/03/23 00:31:45;;;;;;;46.33;17.95;;;9.40;55.50;;;;;;9182932;19;20018;-65
2022/03/23 00:34:50;;;;;;;34.33;16.92;;;9.30;55.50;;;;;;9182531;19;20094;-64
2022/03/23 00:37:55;;;;;;;39.05;17.20;;;9.30;55.70;;;;;;9180351;19;20018;-66
2022/03/23 00:41:00;;;;;;;42.28;18.10;;;9.20;55.60;;;;;;9182712;19;20014;-66
2022/03/23 00:44:05;;;;;;;39.50;19.38;;;9.20;55.70;;;;;;9182888;19;20018;-66
2022/03/23 00:47:14;;;;;;;34.33;16.90;;;9.20;55.70;;;;;;9183400;19;20022;-65
2022/03/23 00:50:19;;;;;;;36.15;16.77;;;9.10;55.80;;;;;;9183041;19;20399;-64
2022/03/23 00:53:24;;;;;;;38.38;17.13;;;9.10;55.80;;;;;;9182013;19;20017;-65
2022/03/23 00:56:31;;;;;;;37.65;17.75;;;9.00;55.80;;;;;;9174337;19;20030;-65
2022/03/23 00:59:37;;;;;;;49.45;19.25;;;9.00;55.80;;;;;;9183414;19;20021;-64
2022/03/23 01:02:46;;;;;;;39.08;16.70;;;8.90;55.90;;;;;;9182403;19;20014;-64
2022/03/23 01:05:53;;;;;;;41.33;18.08;;;8.90;56.00;;;;;;9180986;19;20019;-65
2022/03/23 01:08:58;;;;;;;38.17;17.70;;;8.90;56.00;;;;;;9179984;19;20430;-64
2022/03/23 01:12:04;;;;;;;48.03;17.25;;;8.80;56.00;;;;;;9180940;19;20015;-65
2022/03/23 01:15:11;;;;;;;39.15;18.20;;;8.80;56.10;;;;;;9181179;19;20019;-65
2022/03/23 01:18:18;;;;;;;33.38;17.67;;;8.80;56.10;;;;;;9179601;19;20472;-65
2022/03/23 01:21:23;;;;;;;44.17;17.92;;;8.70;56.10;;;;;;9180009;19;20022;-65
2022/03/23 01:24:28;;;;;;;38.28;18.27;;;8.70;56.20;;;;;;9182271;19;20017;-64
2022/03/23 01:27:34;;;;;;;42.20;16.25;;;8.60;56.20;;;;;;9178872;19;20018;-64
2022/03/23 01:30:39;;;;;;;40.17;16.15;;;8.60;56.20;;;;;;9179881;19;20028;-64
2022/03/23 01:33:47;;;;;;;53.08;18.00;;;8.60;56.30;;;;;;9179893;19;20759;-64
2022/03/23 01:36:52;;;;;;;45.83;18.70;;;8.50;56.40;;;;;;9180740;19;20356;-67
2022/03/23 01:39:57;;;;;;;35.58;17.40;;;8.50;56.40;;;;;;9178296;19;20017;-65
2022/03/23 01:43:02;;;;;;;41.78;17.27;;;8.50;56.40;;;;;;9181982;19;20022;-65
2022/03/23 01:46:07;;;;;;;37.75;19.20;;;8.40;56.50;;;;;;9181439;19;20013;-64
2022/03/23 01:49:15;;;;;;;43.63;19.08;;;8.40;56.50;;;;;;9179481;19;20021;-66
2022/03/23 01:52:23;;;;;;;42.78;17.70;;;8.40;56.60;;;;;;9175784;19;20018;-65
2022/03/23 01:55:28;;;;;;;40.08;17.10;;;8.30;56.60;;;;;;9173930;19;20018;-65
2022/03/23 01:58:33;;;;;;;36.58;17.25;;;8.30;56.60;;;;;;9178970;19;20051;-63
2022/03/23 02:01:45;;;;;;;42.28;18.33;;;8.20;56.60;;;;;;9176638;19;20022;-65
2022/03/23 02:04:53;;;;;;;40.30;18.42;;;8.20;56.60;;;;;;9181919;19;20014;-65
2022/03/23 02:07:59;;;;;;;37.17;18.77;;;8.20;56.70;;;;;;9179531;19;20019;-65
2022/03/23 02:11:05;;;;;;;42.60;17.38;;;8.20;56.80;;;;;;9179295;19;20594;-65
2022/03/23 02:14:14;;;;;;;42.40;19.33;;;8.10;56.80;;;;;;9178726;19;20027;-66
2022/03/23 02:17:21;;;;;;;38.88;17.92;;;8.10;56.80;;;;;;9177387;19;20507;-64
2022/03/23 02:20:29;;;;;;;40.78;19.73;;;8.00;56.80;;;;;;9177772;19;20149;-65
2022/03/23 02:23:36;;;;;;;43.10;18.85;;;8.00;57.00;;;;;;9178247;19;20011;-65
2022/03/23 02:26:42;;;;;;;45.45;18.58;;;8.00;57.10;;;;;;9177812;19;20713;-64
2022/03/23 02:29:47;;;;;;;38.15;17.95;;;8.00;57.00;;;;;;9178813;19;20090;-64
2022/03/23 02:32:52;;;;;;;55.55;19.17;;;7.90;57.00;;;;;;9178405;19;20471;-66
2022/03/23 02:35:58;;;;;;;35.72;18.40;;;7.90;57.10;;;;;;9180092;19;20062;-64
2022/03/23 02:39:05;;;;;;;42.90;19.55;;;7.80;57.10;;;;;;9177255;19;20086;-64
2022/03/23 02:42:10;;;;;;;42.15;17.60;;;7.80;57.20;;;;;;9186437;19;20019;-65
2022/03/23 02:45:16;;;;;;;42.30;18.63;;;7.80;57.20;;;;;;9188699;19;20025;-65
2022/03/23 02:48:21;;;;;;;34.78;18.55;;;7.80;57.30;;;;;;9183795;19;20499;-64
2022/03/23 02:51:26;;;;;;;38.25;18.38;;;7.70;57.30;;;;;;9188176;19;20352;-65
2022/03/23 03:04:50;;;;;;;38.05;18.15;;;7.60;57.50;;;;;;9187623;19;20081;-66
2022/03/23 03:11:15;;;;;;;39.80;17.95;;;7.50;57.40;;;;;;9188121;19;20490;-65
2022/03/23 03:14:20;;;;;;;53.70;20.38;;;7.50;57.50;;;;;;9186706;19;20038;-67
2022/03/23 03:17:25;;;;;;;47.00;19.90;;;7.50;57.60;;;;;;9185423;19;20052;-65
2022/03/23 03:20:30;;;;;;;40.78;19.25;;;7.50;57.60;;;;;;9186352;19;20015;-65
2022/03/23 03:23:36;;;;;;;39.50;19.67;;;7.40;57.60;;;;;;9184951;19;20041;-64
2022/03/23 03:26:44;;;;;;;44.83;20.45;;;7.40;57.70;;;;;;9185450;19;20031;-66
2022/03/23 03:29:49;;;;;;;38.90;19.50;;;7.40;57.80;;;;;;9184430;19;20107;-63
2022/03/23 03:32:54;;;;;;;48.30;19.67;;;7.30;57.70;;;;;;9184838;19;20078;-64
2022/03/23 03:35:59;;;;;;;52.08;22.23;;;7.30;57.80;;;;;;9185304;19;20042;-64
2022/03/23 03:39:05;;;;;;;39.25;19.60;;;7.30;57.80;;;;;;9182665;19;20022;-65
2022/03/23 03:42:13;;;;;;;47.85;20.70;;;7.30;57.90;;;;;;9186229;19;20030;-64
2022/03/23 03:45:18;;;;;;;40.67;18.05;;;7.30;57.90;;;;;;9183691;19;20021;-65
2022/03/23 03:48:23;;;;;;;42.40;20.08;;;7.20;57.90;;;;;;9185742;19;20010;-65
2022/03/23 03:51:29;;;;;;;43.75;19.42;;;7.20;57.90;;;;;;9183950;19;20014;-64
2022/03/23 03:54:35;;;;;;;38.70;19.35;;;7.20;58.00;;;;;;9180283;19;20018;-66
2022/03/23 03:57:42;;;;;;;48.63;19.38;;;7.10;58.00;;;;;;9183259;19;20470;-64
2022/03/23 04:00:47;;;;;;;44.55;20.65;;;7.10;58.10;;;;;;9186064;19;20022;-65
2022/03/23 04:03:53;;;;;;;36.38;18.80;;;7.10;58.10;;;;;;9184051;19;20023;-65
2022/03/23 04:06:58;;;;;;;39.25;19.52;;;7.10;58.10;;;;;;9183904;19;20023;-64
2022/03/23 04:10:03;;;;;;;36.47;18.20;;;7.00;58.10;;;;;;9178946;19;20022;-64
2022/03/23 04:13:10;;;;;;;39.42;18.90;;;7.00;58.10;;;;;;9183147;19;20022;-65
2022/03/23 04:16:16;;;;;;;33.78;18.77;;;7.00;58.20;;;;;;9184718;19;20010;-65
2022/03/23 04:19:21;;;;;;;41.25;19.48;;;7.00;58.20;;;;;;9180675;19;20421;-63
2022/03/23 04:22:26;;;;;;;41.78;19.58;;;7.00;58.30;;;;;;9184565;19;20041;-65
2022/03/23 04:25:31;;;;;;;46.60;19.98;;;6.90;58.30;;;;;;9181735;19;20018;-64
2022/03/23 04:28:38;;;;;;;46.08;19.67;;;6.90;58.40;;;;;;9183687;19;20026;-63
2022/03/23 04:31:44;;;;;;;43.17;18.92;;;6.90;58.40;;;;;;9182507;19;20021;-64
2022/03/23 04:34:49;;;;;;;49.85;19.38;;;6.90;58.40;;;;;;9184363;19;20025;-65
2022/03/23 04:37:54;;;;;;;45.42;19.75;;;6.90;58.40;;;;;;9182542;19;20014;-66
2022/03/23 04:40:59;;;;;;;52.75;20.75;;;6.80;58.40;;;;;;9180910;19;20602;-65
2022/03/23 04:44:07;;;;;;;42.22;18.98;;;6.80;58.50;;;;;;9183780;19;20019;-64
2022/03/23 04:47:13;;;;;;;49.90;21.13;;;6.80;58.60;;;;;;9184141;19;20013;-65
2022/03/23 04:50:19;;;;;;;48.90;20.10;;;6.80;58.60;;;;;;9182495;19;20022;-61
2022/03/23 04:53:24;;;;;;;37.97;18.20;;;6.80;58.60;;;;;;9184167;19;20015;-62
2022/03/23 04:56:29;;;;;;;40.00;19.10;;;6.80;58.70;;;;;;9178720;19;20029;-63
2022/03/23 04:59:37;;;;;;;41.40;19.65;;;6.70;58.60;;;;;;9180458;19;20372;-66
2022/03/23 05:02:42;;;;;;;43.75;20.05;;;6.70;58.70;;;;;;9181188;19;20025;-66
2022/03/23 05:05:48;;;;;;;43.65;21.70;;;6.70;58.70;;;;;;9181863;19;20466;-65
2022/03/23 05:08:53;;;;;;;42.90;21.00;;;6.70;58.70;;;;;;9182052;19;20111;-65
2022/03/23 05:11:58;;;;;;;37.92;20.10;;;6.70;58.80;;;;;;9182601;19;20018;-64
2022/03/23 05:15:08;;;;;;;45.78;19.38;;;6.70;58.80;;;;;;9181127;19;20023;-64
2022/03/23 05:18:14;;;;;;;37.88;18.10;;;6.70;58.90;;;;;;9181913;19;20015;-64
2022/03/23 05:21:19;;;;;;;45.20;20.45;;;6.60;58.80;;;;;;9179928;19;20026;-65
2022/03/23 05:24:24;;;;;;;50.53;20.08;;;6.60;58.80;;;;;;9180684;19;20033;-65
2022/03/23 05:27:29;;;;;;;48.95;20.83;;;6.60;58.90;;;;;;9182260;19;20464;-64
2022/03/23 05:30:37;;;;;;;36.90;19.25;;;6.60;58.90;;;;;;9180461;19;20015;-65
2022/03/23 05:33:42;;;;;;;40.13;20.25;;;6.60;59.60;;;;;;9181859;19;20014;-64
2022/03/23 05:36:47;;;;;;;39.60;18.85;;;6.60;59.00;;;;;;9180406;19;20364;-65
2022/03/23 05:39:52;;;;;;;46.10;20.25;;;6.60;59.00;;;;;;9179821;19;20022;-64
2022/03/23 05:42:57;;;;;;;49.90;21.35;;;6.50;59.10;;;;;;9179278;19;20015;-66
2022/03/23 05:46:05;;;;;;;49.40;20.92;;;6.50;59.10;;;;;;9181486;19;20029;-63
2022/03/23 05:49:10;;;;;;;47.03;20.23;;;6.50;59.20;;;;;;9178479;19;20014;-63
2022/03/23 05:52:16;;;;;;;48.88;21.20;;;6.50;59.20;;;;;;9180668;19;20026;-64
2022/03/23 05:55:21;;;;;;;41.60;20.80;;;6.40;59.20;;;;;;9174249;19;20368;-63
2022/03/23 05:58:26;;;;;;;48.85;20.38;;;6.50;59.40;;;;;;9179286;19;20441;-66
2022/03/23 06:01:35;;;;;;;54.97;20.35;;;6.40;59.30;;;;;;9180243;19;20014;-64
2022/03/23 06:04:40;;;;;;;43.90;21.42;;;6.40;59.40;;;;;;9178237;19;20019;-64
2022/03/23 06:07:45;;;;;;;48.00;21.08;;;6.40;59.40;;;;;;9178225;19;20025;-64
2022/03/23 06:10:50;;;;;;;48.53;21.52;;;6.40;59.40;;;;;;9179051;19;20026;-64
2022/03/23 06:13:56;;;;;;;42.00;21.02;;;6.40;59.50;;;;;;9179633;19;20368;-64
2022/03/23 06:17:03;;;;;;;50.72;22.33;;;6.40;59.50;;;;;;9179496;19;20046;-64
2022/03/23 06:20:10;;;;;;;40.28;20.92;;;6.40;59.60;;;;;;9178934;19;20017;-65
2022/03/23 06:23:15;;;;;;;47.03;21.42;;;6.40;59.60;;;;;;9179897;19;20643;-62
2022/03/23 06:26:20;;;;;;;50.22;21.60;;;6.40;59.70;;;;;;9180104;19;20042;-62
2022/03/23 06:29:25;;;;;;;50.60;22.90;;;6.50;59.80;;;;;;9179750;19;20022;-64
2022/03/23 06:32:33;;;;;;;45.75;20.85;;;6.50;59.90;;;;;;9178120;19;20018;-64
2022/03/23 06:35:38;;;;;;;44.15;19.95;;;6.50;59.90;;;;;;9180098;19;20027;-65
2022/03/23 06:38:43;;;;;;;43.33;20.83;;;6.50;60.00;;;;;;9178614;19;20019;-64
2022/03/23 06:41:48;;;;;;;46.70;22.00;;;6.50;60.00;;;;;;9178723;19;20473;-66
2022/03/23 06:44:53;;;;;;;48.35;22.35;;;6.60;60.10;;;;;;9179167;19;20021;-66
2022/03/23 06:48:01;;;;;;;50.20;22.35;;;6.60;60.20;;;;;;9177132;19;20053;-63
2022/03/23 06:51:06;;;;;;;46.83;22.85;;;6.70;60.40;;;;;;9179205;19;20409;-64
2022/03/23 06:54:11;;;;;;;54.83;23.55;;;6.80;60.40;;;;;;9175788;19;20018;-65
2022/03/23 06:57:16;;;;;;;49.67;21.92;;;6.80;60.40;;;;;;9177929;19;20018;-65
2022/03/23 07:00:21;;;;;;;45.33;21.92;;;6.90;60.40;;;;;;9177843;19;20031;-63
2022/03/23 07:03:29;;;;;;;54.08;23.05;;;7.00;60.40;;;;;;9176532;19;20015;-64
2022/03/23 07:06:35;;;;;;;42.35;21.60;;;7.20;60.50;;;;;;9178411;19;20052;-65
2022/03/23 07:09:41;;;;;;;44.80;21.52;;;7.30;60.40;;;;;;9170158;19;20030;-65
2022/03/23 07:12:46;;;;;;;51.30;21.33;;;7.40;60.40;;;;;;9172709;19;20019;-62
2022/03/23 07:15:51;;;;;;;47.85;22.10;;;7.50;60.40;;;;;;9163753;19;20025;-65
2022/03/23 07:19:04;;;;;;;46.35;21.42;;;7.60;60.40;;;;;;9157964;19;20018;-63
2022/03/23 07:22:11;;;;;;;53.03;21.77;;;7.80;60.40;;;;;;9157734;19;20042;-64
2022/03/23 07:25:16;;;;;;;42.10;21.58;;;7.90;60.30;;;;;;9160362;19;20026;-65
2022/03/23 07:28:21;;;;;;;49.83;22.13;;;8.10;60.40;;;;;;9171866;19;20471;-65
2022/03/23 07:31:26;;;;;;;44.20;21.95;;;8.30;60.40;;;;;;9178775;19;20474;-65
2022/03/23 07:34:34;;;;;;;41.70;21.95;;;8.50;60.40;;;;;;9180735;19;20479;-64
2022/03/23 07:37:39;;;;;;;47.40;22.85;;;8.60;60.40;;;;;;9180661;19;20041;-64
2022/03/23 07:40:44;;;;;;;41.30;21.70;;;8.80;60.30;;;;;;9176006;19;20015;-67
2022/03/23 07:43:49;;;;;;;48.55;20.52;;;9.00;60.40;;;;;;9180048;19;20472;-64
2022/03/23 07:46:54;;;;;;;44.83;21.13;;;9.20;60.30;;;;;;9183927;19;20017;-63
2022/03/23 07:50:02;;;;;;;36.33;19.73;;;9.40;60.30;;;;;;9184243;19;20403;-65
2022/03/23 07:53:07;;;;;;;38.50;20.83;;;9.60;60.90;;;;;;9183729;19;20024;-64
2022/03/23 07:56:12;;;;;;;40.88;21.05;;;9.90;60.30;;;;;;9181106;19;20025;-62
2022/03/23 07:59:19;;;;;;;51.75;20.67;;;10.10;60.20;;;;;;9184342;19;20010;-69
2022/03/23 08:02:24;;;;;;;45.47;20.30;;;10.40;60.20;;;;;;9185596;19;20376;-69
2022/03/23 08:05:34;;;;;;;46.42;22.33;;;10.60;60.10;;;;;;9183760;19;20430;-70
2022/03/23 08:08:45;;;;;;;41.80;19.63;;;10.90;60.10;;;;;;9181973;19;20017;-70
2022/03/23 08:11:50;;;;;;;41.28;20.10;;;11.20;59.90;;;;;;9183799;19;20035;-68
2022/03/23 08:14:55;;;;;;;43.25;20.17;;;11.40;59.70;;;;;;9184713;19;20122;-70
2022/03/23 08:18:00;;;;;;;40.83;19.23;;;11.70;59.60;;;;;;9183706;19;20021;-69
2022/03/23 08:21:16;;;;;;;49.10;20.85;;;11.90;59.40;;;;;;9180881;19;20010;-69
2022/03/23 08:24:21;;;;;;;31.95;16.83;;;12.20;59.20;;;;;;9181225;19;20033;-68
2022/03/23 08:27:26;;;;;;;28.70;16.92;;;12.40;59.00;;;;;;9183850;19;20010;-69
2022/03/23 08:30:32;;;;;;;34.00;16.30;;;12.60;58.60;;;;;;9182546;19;20018;-69
2022/03/23 08:33:40;;;;;;;27.60;16.52;;;12.80;58.40;;;;;;9183794;19;20015;-68
2022/03/23 08:36:55;;;;;;;29.70;16.13;;;13.10;58.10;;;;;;9182904;19;20476;-69
2022/03/23 08:40:03;;;;;;;33.17;16.25;;;13.40;57.80;;;;;;9183546;19;20104;-68
2022/03/23 08:43:08;;;;;;;31.88;17.90;;;13.60;57.70;;;;;;9185345;19;20022;-70
2022/03/23 08:46:14;;;;;;;30.40;16.52;;;13.80;57.50;;;;;;9181693;19;20010;-70
2022/03/23 08:49:21;;;;;;;31.83;16.63;;;14.10;57.40;;;;;;9183408;19;20472;-71
2022/03/23 08:52:30;;;;;;;29.42;17.20;;;14.30;57.20;;;;;;9178037;19;20014;-70
2022/03/23 08:55:35;;;;;;;31.98;16.27;;;14.50;56.80;;;;;;9173996;19;20502;-69
2022/03/23 08:58:47;;;;;;;33.97;16.52;;;14.80;56.60;;;;;;9180565;19;20018;-70
2022/03/23 09:01:55;;;;;;;36.50;15.50;;;15.00;56.30;;;;;;9174426;19;20110;-71
2022/03/23 09:05:00;;;;;;;27.75;16.45;;;15.20;56.10;;;;;;9179406;19;20022;-71
2022/03/23 09:08:09;;;;;;;27.25;15.73;;;15.40;55.90;;;;;;9180638;19;20052;-71
2022/03/23 09:11:14;;;;;;;30.90;15.93;;;15.70;55.70;;;;;;9177676;19;20014;-71
2022/03/23 09:14:24;;;;;;;28.70;15.88;;;15.90;55.50;;;;;;9177153;19;20026;-70
2022/03/23 09:17:29;;;;;;;34.63;16.45;;;16.10;55.30;;;;;;9180747;19;20022;-70
2022/03/23 09:20:38;;;;;;;28.88;16.75;;;16.30;55.00;;;;;;9174000;19;20018;-70
2022/03/23 09:23:46;;;;;;;30.33;16.92;;;16.50;54.90;;;;;;9173154;19;20026;-72
2022/03/23 09:26:51;;;;;;;31.95;16.30;;;16.70;54.80;;;;;;9171931;19;20022;-66
2022/03/23 09:29:56;;;;;;;26.70;16.30;;;16.90;54.70;;;;;;9179626;19;20025;-66
2022/03/23 09:33:01;;;;;;;25.60;15.45;;;17.10;54.50;;;;;;9179943;19;20022;-66
2022/03/23 09:37:47;;;;;;;23.98;15.00;;;17.30;54.30;;;;;;9179285;19;20022;-66
2022/03/23 09:39:34;;;;;;;23.55;13.90;;;17.50;54.10;;;;;;9179429;19;20364;-67
2022/03/23 09:42:41;;;;;;;28.13;14.35;;;17.70;53.70;;;;;;9178929;19;20355;-66
2022/03/23 09:45:50;;;;;;;24.52;14.23;;;17.90;53.50;;;;;;9180683;19;20051;-65
2022/03/23 09:48:55;;;;;;;27.77;14.80;;;18.10;53.20;;;;;;9178957;19;20025;-66
2022/03/23 09:52:01;;;;;;;27.27;14.63;;;18.30;52.90;;;;;;9180041;19;20360;-67
2022/03/23 09:55:10;;;;;;;31.15;15.38;;;18.50;52.60;;;;;;9175071;19;20015;-69
2022/03/23 09:58:16;;;;;;;23.35;13.32;;;18.60;52.20;;;;;;9180799;19;20374;-66
2022/03/23 10:02:08;;;;;;;20.75;13.48;;;18.80;51.90;;;;;;9168474;19;20029;-68
2022/03/23 10:06:00;;;;;;;23.33;13.52;;;19.10;51.10;;;;;;9176748;19;20018;-68
2022/03/23 10:09:35;;;;;;;21.23;13.13;;;19.30;50.80;;;;;;9174515;19;20022;-68
2022/03/23 10:13:12;;;;;;;24.60;14.68;;;19.60;50.40;;;;;;9179775;19;20086;-67
2022/03/23 10:16:56;;;;;;;27.00;14.40;;;19.70;50.30;;;;;;9181164;19;20026;-67
2022/03/23 10:20:02;;;;;;;19.08;13.18;;;19.90;50.00;;;;;;9178910;19;20018;-66
2022/03/23 10:23:08;;;;;;;25.38;13.52;;;20.10;50.30;;;;;;9177538;19;20018;-67
2022/03/23 10:26:14;;;;;;;22.55;12.82;;;20.20;50.00;;;;;;9180730;19;20007;-66
2022/03/23 10:29:23;;;;;;;29.27;13.35;;;20.40;49.60;;;;;;9178260;19;20025;-68
2022/03/23 10:32:36;;;;;;;20.40;13.13;;;20.50;49.10;;;;;;9180703;19;20019;-68
2022/03/23 10:35:42;;;;;;;20.55;13.20;;;20.60;48.50;;;;;;9180745;19;20033;-67
2022/03/23 10:38:47;;;;;;;17.02;11.90;;;20.80;48.70;;;;;;9180461;19;20095;-66
2022/03/23 10:41:59;;;;;;;19.17;12.50;;;20.90;48.40;;;;;;9178881;19;20762;-68
2022/03/23 10:45:15;;;;;;;24.40;13.25;;;21.00;47.70;;;;;;9179186;19;20038;-67
2022/03/23 10:48:23;;;;;;;15.93;12.13;;;21.10;47.40;;;;;;9177993;19;20400;-66
2022/03/23 10:51:30;;;;;;;20.00;12.18;;;21.20;47.50;;;;;;9178983;19;20074;-66
2022/03/23 10:54:35;;;;;;;18.73;12.60;;;21.30;47.30;;;;;;9174795;19;20344;-67
2022/03/23 10:58:21;;;;;;;17.92;12.13;;;21.40;47.10;;;;;;9178947;19;20010;-69
2022/03/23 11:01:26;;;;;;;28.33;12.95;;;21.50;46.20;;;;;;9179938;19;20053;-66
2022/03/23 11:04:47;;;;;;;25.70;13.38;;;21.70;46.90;;;;;;9187400;19;20019;-66
2022/03/23 11:07:52;;;;;;;20.05;12.98;;;21.70;45.80;;;;;;9186229;19;20026;-67
2022/03/23 11:17:39;;;;;;;25.00;13.10;;;22.00;45.70;;;;;;9187553;19;20025;-67
2022/03/23 11:20:49;;;;;;;22.63;12.98;;;22.00;45.60;;;;;;9186611;19;20090;-67
2022/03/23 11:23:54;;;;;;;17.17;11.00;;;22.10;45.00;;;;;;9186247;19;20030;-69
2022/03/23 11:27:00;;;;;;;21.10;12.57;;;22.10;45.00;;;;;;9186572;19;20014;-68
2022/03/23 11:30:06;;;;;;;17.58;11.07;;;22.20;44.60;;;;;;9186947;19;20366;-67
2022/03/23 11:33:13;;;;;;;24.85;12.07;;;22.20;44.30;;;;;;9187087;19;20028;-67
2022/03/23 11:36:22;;;;;;;19.92;11.80;;;22.30;44.30;;;;;;9185907;19;20010;-67
2022/03/23 11:39:28;;;;;;;20.35;12.05;;;22.30;44.00;;;;;;9185827;19;20014;-68
2022/03/23 11:42:34;;;;;;;17.80;12.40;;;22.30;43.90;;;;;;9183054;19;20013;-68
2022/03/23 11:45:41;;;;;;;15.43;11.60;;;22.40;43.80;;;;;;9187060;19;20017;-67
2022/03/23 11:49:01;;;;;;;16.75;11.13;;;22.40;43.40;;;;;;9184284;19;20018;-68
2022/03/23 11:52:29;;;;;;;23.02;12.40;;;22.50;42.70;;;;;;9184143;19;20018;-68
2022/03/23 11:55:40;;;;;;;18.55;11.68;;;22.50;42.50;;;;;;9182076;19;20086;-67
2022/03/23 11:58:45;;;;;;;16.23;10.82;;;22.60;42.90;;;;;;9184563;19;20097;-67
2022/03/23 12:01:51;;;;;;;19.02;11.88;;;22.60;42.80;;;;;;9181907;19;20018;-66
2022/03/23 12:05:26;;;;;;;17.50;11.25;;;22.60;42.50;;;;;;9181125;19;20026;-66
2022/03/23 12:08:50;;;;;;;20.75;11.65;;;22.70;41.70;;;;;;9183119;19;20102;-66
2022/03/23 12:11:55;;;;;;;23.08;12.25;;;22.60;41.50;;;;;;9177599;19;20030;-66
2022/03/23 12:15:33;;;;;;;20.13;11.20;;;22.60;42.10;;;;;;9184717;19;20019;-67
2022/03/23 12:18:42;;;;;;;17.48;11.57;;;22.60;41.20;;;;;;9185645;19;20378;-67
2022/03/23 12:21:58;;;;;;;19.10;12.68;;;22.70;41.70;;;;;;9182273;19;20011;-67
2022/03/23 12:25:14;;;;;;;18.98;13.15;;;22.70;41.30;;;;;;9185370;19;20043;-67
2022/03/23 12:28:32;;;;;;;17.88;12.02;;;22.70;41.10;;;;;;9184399;19;20040;-66
2022/03/23 12:31:39;;;;;;;18.92;11.55;;;22.70;40.90;;;;;;9182173;19;20524;-66
2022/03/23 12:34:46;;;;;;;20.15;13.02;;;22.70;41.30;;;;;;9184579;19;20025;-67
2022/03/23 12:37:57;;;;;;;20.52;12.43;;;22.70;41.10;;;;;;9184540;19;20110;-66
2022/03/23 12:41:09;;;;;;;17.80;12.73;;;22.70;41.00;;;;;;9184065;19;20025;-67
2022/03/23 12:44:15;;;;;;;17.98;13.02;;;22.70;40.50;;;;;;9184053;19;20333;-66
2022/03/23 12:47:23;;;;;;;19.48;13.18;;;22.70;40.70;;;;;;9182072;19;20486;-66
2022/03/23 13:00:44;;;;;;;21.60;13.50;;;22.50;39.90;;;;;;9182101;19;20026;-64
2022/03/23 13:03:56;;;;;;;18.23;12.68;;;22.50;40.30;;;;;;9176383;19;20368;-67
2022/03/23 13:07:40;;;;;;;20.10;13.50;;;22.50;40.00;;;;;;9181158;19;20048;-67
2022/03/23 13:10:56;;;;;;;22.33;14.05;;;22.40;39.50;;;;;;9182567;19;20491;-67
2022/03/23 13:14:05;;;;;;;21.73;13.82;;;22.40;39.70;;;;;;9180797;19;20010;-67
2022/03/23 13:17:11;;;;;;;21.35;13.02;;;22.30;39.90;;;;;;9181276;19;20094;-67
2022/03/23 13:20:18;;;;;;;24.23;13.95;;;22.30;39.80;;;;;;9178352;19;20013;-65
2022/03/23 13:23:26;;;;;;;19.42;12.93;;;22.30;39.70;;;;;;9179074;19;20014;-66
2022/03/23 13:26:34;;;;;;;25.48;13.52;;;22.30;39.70;;;;;;9181217;19;20702;-66
2022/03/23 13:29:44;;;;;;;23.80;13.32;;;22.20;39.50;;;;;;9181654;19;20332;-67
2022/03/23 13:32:50;;;;;;;22.98;12.88;;;22.10;39.30;;;;;;9177537;19;20019;-66
2022/03/23 13:35:57;;;;;;;25.20;13.40;;;22.00;39.40;;;;;;9180175;19;20029;-64
2022/03/23 13:39:03;;;;;;;22.63;13.18;;;22.00;39.30;;;;;;9178375;19;20085;-66
2022/03/23 13:45:31;;;;;;;19.90;12.90;;;21.90;39.10;;;;;;9180937;19;20025;-66
2022/03/23 13:48:39;;;;;;;20.55;13.15;;;21.80;39.10;;;;;;9179608;19;20394;-65
2022/03/23 13:51:45;;;;;;;20.70;14.23;;;21.80;39.00;;;;;;9180902;19;20086;-67
2022/03/23 13:54:55;;;;;;;20.75;13.00;;;21.70;39.00;;;;;;9173522;19;20115;-65
2022/03/23 13:58:00;;;;;;;21.17;13.98;;;21.60;39.00;;;;;;9179583;19;20374;-67
2022/03/23 14:01:08;;;;;;;25.05;14.63;;;21.60;39.00;;;;;;9179584;19;20010;-67
2022/03/23 14:04:15;;;;;;;23.75;13.68;;;21.60;38.90;;;;;;9176182;19;20074;-67
2022/03/23 14:07:21;;;;;;;22.75;13.45;;;21.50;38.90;;;;;;9181005;19;20361;-67
2022/03/23 14:10:32;;;;;;;23.13;14.50;;;21.50;38.90;;;;;;9179258;19;20480;-67
2022/03/23 14:13:38;;;;;;;24.13;15.43;;;21.50;38.90;;;;;;9178366;19;20047;-67
2022/03/23 14:16:59;;;;;;;26.08;14.10;;;21.40;38.80;;;;;;9180736;19;20498;-67
2022/03/23 14:20:06;;;;;;;24.98;14.32;;;21.30;38.40;;;;;;9179417;19;20018;-66
2022/03/23 14:23:12;;;;;;;24.92;14.25;;;21.30;38.80;;;;;;9179451;19;20014;-68
2022/03/23 14:26:36;;;;;;;22.75;13.93;;;21.30;38.80;;;;;;9178865;19;20791;-67
2022/03/23 14:29:42;;;;;;;24.38;15.52;;;21.30;38.50;;;;;;9178698;19;20044;-65
2022/03/23 14:32:57;;;;;;;21.00;13.77;;;21.20;39.00;;;;;;9179660;19;20379;-67
2022/03/23 14:36:06;;;;;;;32.90;14.75;;;21.20;38.60;;;;;;9180712;19;20052;-68
2022/03/23 14:39:23;;;;;;;25.52;15.48;;;21.20;39.00;;;;;;9188554;19;20722;-66
2022/03/23 14:42:34;;;;;;;27.52;15.15;;;21.20;38.50;;;;;;9185932;19;20058;-67
2022/03/23 14:45:43;;;;;;;24.27;14.38;;;21.20;38.60;;;;;;9188526;19;20015;-67
2022/03/23 14:49:03;;;;;;;26.75;14.52;;;21.20;38.80;;;;;;9186988;19;20014;-67
2022/03/23 14:52:09;;;;;;;23.58;16.02;;;21.10;38.30;;;;;;9189080;19;20369;-67
2022/03/23 14:55:17;;;;;;;25.23;14.35;;;21.10;38.60;;;;;;9181614;19;20017;-68
2022/03/23 14:58:42;;;;;;;25.83;15.73;;;21.10;38.70;;;;;;9186678;19;20011;-67
2022/03/23 15:01:48;;;;;;;22.73;15.25;;;21.10;38.70;;;;;;9185027;19;20494;-68
2022/03/23 15:04:56;;;;;;;28.17;16.35;;;21.00;38.60;;;;;;9183159;19;20353;-66
2022/03/23 15:14:37;;;;;;;30.55;15.10;;;21.00;38.80;;;;;;9186144;19;20094;-67
2022/03/23 15:17:42;;;;;;;27.73;15.73;;;21.00;38.60;;;;;;9186219;19;20021;-65
2022/03/23 15:20:49;;;;;;;24.30;14.50;;;20.90;38.50;;;;;;9186804;19;20014;-66
2022/03/23 15:23:54;;;;;;;23.55;14.93;;;20.90;38.40;;;;;;9185774;19;20006;-66
2022/03/23 15:26:59;;;;;;;24.75;15.20;;;20.80;38.40;;;;;;9187158;19;20837;-66
2022/03/23 15:30:05;;;;;;;26.30;16.05;;;20.80;38.40;;;;;;9185191;19;20594;-70
2022/03/23 15:33:14;;;;;;;24.02;14.50;;;20.70;38.40;;;;;;9186025;19;20014;-70
2022/03/23 15:36:23;;;;;;;24.77;14.65;;;20.80;38.40;;;;;;9186797;19;20022;-70
2022/03/23 15:39:30;;;;;;;22.45;14.07;;;20.70;38.30;;;;;;9185071;19;20014;-70
2022/03/23 15:45:57;;;;;;;20.10;13.52;;;20.70;38.30;;;;;;9185390;19;20040;-70
2022/03/23 15:49:04;;;;;;;20.70;13.82;;;20.60;38.30;;;;;;9183134;19;20029;-68
2022/03/23 15:52:15;;;;;;;19.02;13.25;;;20.50;38.20;;;;;;9187170;19;20345;-70
2022/03/23 15:55:20;;;;;;;23.00;13.15;;;20.50;38.20;;;;;;9180801;19;20366;-69
2022/03/23 15:58:25;;;;;;;22.80;13.82;;;20.40;38.20;;;;;;9185229;19;20440;-70
2022/03/23 16:01:31;;;;;;;22.73;14.15;;;20.30;38.30;;;;;;9184327;19;20416;-67
2022/03/23 16:04:36;;;;;;;24.73;14.55;;;20.20;38.20;;;;;;9180961;19;20502;-69
2022/03/23 16:07:44;;;;;;;22.35;14.65;;;20.20;38.20;;;;;;9186076;19;20499;-69
2022/03/23 16:10:49;;;;;;;21.80;13.70;;;20.10;38.10;;;;;;9184412;19;20014;-69
2022/03/23 16:13:57;;;;;;;27.45;14.18;;;20.10;38.30;;;;;;9183610;19;20026;-70
2022/03/23 16:17:03;;;;;;;27.48;15.23;;;20.10;38.30;;;;;;9183726;19;20014;-70
2022/03/23 16:20:11;;;;;;;29.33;14.75;;;20.00;38.30;;;;;;9184080;19;20022;-69
2022/03/23 16:23:19;;;;;;;23.92;13.85;;;19.90;38.20;;;;;;9183437;19;20501;-70
2022/03/23 16:26:29;;;;;;;20.80;13.77;;;19.90;38.20;;;;;;9183618;19;20071;-68
2022/03/23 16:29:34;;;;;;;22.35;13.43;;;19.80;38.40;;;;;;9177920;19;20495;-68
2022/03/23 16:32:40;;;;;;;23.95;14.07;;;19.70;38.40;;;;;;9181882;19;20026;-68
2022/03/23 16:35:47;;;;;;;21.95;13.70;;;19.70;38.50;;;;;;9175695;19;20038;-69
2022/03/23 16:38:56;;;;;;;27.17;13.63;;;19.60;38.50;;;;;;9178609;19;20015;-69
2022/03/23 16:42:01;;;;;;;22.58;13.93;;;19.50;38.40;;;;;;9178633;19;20047;-69